Time;durP1;ratioP1;P1;durP2;ratioP2;P2;SDS_P1;SDS_P2;PMS_P1;PMS_P2;Temp;Humidity;BMP_temperature;BMP_pressure;BME280_temperature;BME280_humidity;BME280_pressure;Samples;Min_cycle;Max_cycle;Signal;HPM_P1;HPM_P2
2022/05/11 00:00:02;;;;;;;10.52;6.18;;;;;;;;;;5098909;28;20039;-86
2022/05/11 00:02:47;;;;;;;11.38;5.68;;;;;;;;;;5099232;28;20074;-86
2022/05/11 00:05:32;;;;;;;9.40;5.85;;;;;;;;;;5113378;28;20081;-85
2022/05/11 00:08:17;;;;;;;10.80;5.82;;;;;;;;;;5112993;28;20132;-86
2022/05/11 00:11:04;;;;;;;14.15;6.22;;;;;;;;;;5112896;28;20501;-87
2022/05/11 00:13:49;;;;;;;10.75;6.10;;;;;;;;;;5114153;28;20069;-87
2022/05/11 00:16:34;;;;;;;9.85;6.22;;;13.80;99.90;;;;;;5113137;28;20034;-86
2022/05/11 00:19:21;;;;;;;13.63;6.55;;;;;;;;;;5112557;28;20089;-86
2022/05/11 00:22:05;;;;;;;11.35;6.40;;;;;;;;;;5112593;28;20148;-86
2022/05/11 00:24:50;;;;;;;11.93;5.82;;;;;;;;;;5119041;27;20540;-86
2022/05/11 00:27:35;;;;;;;10.05;6.78;;;;;;;;;;5119188;27;20065;-86
2022/05/11 00:30:19;;;;;;;9.82;6.00;;;;;;;;;;5118491;27;20076;-86
2022/05/11 00:33:04;;;;;;;10.77;6.13;;;;;;;;;;5118431;27;20042;-87
2022/05/11 00:35:51;;;;;;;11.70;5.90;;;13.80;99.90;;;;;;5119021;27;20102;-86
2022/05/11 00:38:35;;;;;;;10.55;5.97;;;;;;;;;;5118971;27;20046;-86
2022/05/11 00:41:20;;;;;;;12.98;5.72;;;;;;;;;;5118303;27;20045;-86
2022/05/11 00:44:09;;;;;;;14.30;6.38;;;;;;;;;;5133818;27;20130;-87
2022/05/11 00:47:00;;;;;;;10.02;5.78;;;;;;;;;;5118667;27;20041;-86
2022/05/11 00:50:10;;;;;;;9.38;5.82;;;13.90;99.90;;;;;;5104305;27;20092;-86
2022/05/11 00:53:00;;;;;;;9.63;5.70;;;13.80;99.90;;;;;;5117939;27;20399;-86
2022/05/11 00:55:51;;;;;;;10.88;5.72;;;13.80;99.90;;;;;;5133987;27;20046;-86
2022/05/11 00:58:50;;;;;;;10.65;5.75;;;13.80;99.90;;;;;;5134328;27;20495;-87
2022/05/11 01:01:39;;;;;;;12.27;5.53;;;;;;;;;;5118643;27;20033;-87
2022/05/11 01:04:24;;;;;;;8.73;4.80;;;;;;;;;;5117996;27;20042;-87
2022/05/11 01:07:11;;;;;;;8.80;5.13;;;13.80;99.90;;;;;;5117976;27;20084;-86
2022/05/11 01:09:56;;;;;;;8.27;5.40;;;;;;;;;;5118271;27;20402;-86
2022/05/11 01:12:49;;;;;;;8.48;5.20;;;13.70;99.90;;;;;;5118213;27;20128;-86
2022/05/11 01:15:34;;;;;;;10.53;4.70;;;;;;;;;;5118210;27;20481;-86
2022/05/11 01:18:20;;;;;;;7.82;4.65;;;13.70;99.90;;;;;;5117574;27;20505;-86
2022/05/11 01:21:14;;;;;;;9.73;5.00;;;;;;;;;;5118100;27;20138;-86
2022/05/11 01:24:03;;;;;;;9.55;5.00;;;;;;;;;;5118193;28;20115;-86
2022/05/11 01:26:48;;;;;;;7.82;4.68;;;;;;;;;;5118308;28;20096;-86
2022/05/11 01:29:32;;;;;;;7.88;4.80;;;;;;;;;;5117604;28;20143;-86
2022/05/11 01:32:19;;;;;;;10.02;4.90;;;13.60;99.90;;;;;;5132981;28;20035;-85
2022/05/11 01:35:41;;;;;;;7.57;4.72;;;13.60;99.90;;;;;;5117908;28;20038;-86
2022/05/11 01:38:38;;;;;;;8.90;4.82;;;;;;;;;;5117472;28;20398;-86
2022/05/11 01:41:38;;;;;;;8.63;4.40;;;13.60;99.90;;;;;;5117548;28;20497;-85
2022/05/11 01:44:23;;;;;;;9.20;4.95;;;;;;;;;;5117603;28;20091;-86
2022/05/11 01:47:08;;;;;;;10.27;4.95;;;;;;;;;;5117813;28;20080;-85
2022/05/11 01:49:53;;;;;;;9.30;5.28;;;;;;;;;;5111047;28;20054;-86
2022/05/11 01:52:38;;;;;;;11.02;4.40;;;;;;;;;;5117711;28;20045;-85
2022/05/11 01:55:22;;;;;;;7.47;5.05;;;;;;;;;;5117344;28;20034;-85
2022/05/11 01:58:11;;;;;;;7.82;4.75;;;13.60;99.90;;;;;;5117974;28;20057;-86
2022/05/11 02:00:56;;;;;;;6.70;4.57;;;;;;;;;;5117853;28;20558;-85
2022/05/11 02:03:41;;;;;;;8.68;4.65;;;;;;;;;;5103562;27;20066;-85
2022/05/11 02:09:29;;;;;;;7.80;4.63;;;;;;;;;;5136808;27;20039;-84
2022/05/11 02:12:13;;;;;;;9.52;4.70;;;;;;;;;;5121615;27;20118;-86
2022/05/11 02:15:00;;;;;;;8.63;4.63;;;;;;;;;;5121727;27;20084;-86
2022/05/11 02:17:48;;;;;;;7.43;4.25;;;;;;;;;;5107206;27;20518;-85
2022/05/11 02:20:35;;;;;;;6.20;4.35;;;13.50;99.90;;;;;;5121021;27;20042;-86
2022/05/11 02:23:23;;;;;;;8.95;4.80;;;13.50;99.90;;;;;;5120978;27;20042;-85
2022/05/11 02:26:14;;;;;;;8.32;4.68;;;13.50;99.90;;;;;;5121325;27;20058;-86
2022/05/11 02:28:59;;;;;;;9.00;5.05;;;;;;;;;;5121383;27;20070;-86
2022/05/11 02:31:43;;;;;;;8.43;4.20;;;;;;;;;;5121112;27;20491;-86
2022/05/11 02:37:31;;;;;;;9.32;3.65;;;;;;;;;;5136211;27;20490;-86
2022/05/11 02:40:19;;;;;;;7.18;4.10;;;13.50;99.90;;;;;;5106878;27;20070;-86
2022/05/11 02:43:04;;;;;;;9.18;4.30;;;;;;;;;;5121127;27;20042;-86
2022/05/11 02:45:54;;;;;;;9.48;4.63;;;13.40;99.90;;;;;;5120991;27;20060;-85
2022/05/11 02:48:39;;;;;;;7.95;4.18;;;;;;;;;;5120424;27;20430;-86
2022/05/11 02:51:24;;;;;;;8.27;4.40;;;;;;;;;;5120474;27;20042;-86
2022/05/11 02:54:08;;;;;;;9.60;4.70;;;;;;;;;;5120752;27;20065;-86
2022/05/11 02:56:55;;;;;;;7.97;4.97;;;;;;;;;;5120764;27;20039;-86
2022/05/11 02:59:40;;;;;;;7.93;4.95;;;;;;;;;;5120205;27;20532;-86
2022/05/11 03:02:25;;;;;;;11.35;5.28;;;;;;;;;;5120249;27;20118;-86
2022/05/11 03:05:12;;;;;;;12.68;5.68;;;13.40;99.90;;;;;;5120599;27;20035;-85
2022/05/11 03:07:57;;;;;;;11.13;5.70;;;;;;;;;;5120558;27;20041;-86
2022/05/11 03:10:42;;;;;;;8.20;4.93;;;;;;;;;;5135669;27;20123;-86
2022/05/11 03:13:26;;;;;;;10.18;4.55;;;;;;;;;;5119957;27;20497;-86
2022/05/11 03:16:11;;;;;;;13.30;5.47;;;;;;;;;;5120195;27;20042;-88
2022/05/11 03:19:02;;;;;;;7.10;4.90;;;;;;;;;;5120281;27;20038;-86
2022/05/11 03:21:47;;;;;;;9.52;5.10;;;;;;;;;;5105636;27;20078;-86
2022/05/11 03:24:32;;;;;;;11.48;5.47;;;;;;;;;;5105648;27;20099;-85
2022/05/11 03:27:17;;;;;;;12.13;5.30;;;;;;;;;;5105928;27;20460;-86
2022/05/11 03:30:04;;;;;;;9.40;4.88;;;;;;;;;;5120317;27;20123;-86
2022/05/11 03:35:53;;;;;;;9.85;4.93;;;;;;;;;;5135576;27;20049;-86
2022/05/11 03:38:38;;;;;;;10.30;4.35;;;;;;;;;;5119459;27;20466;-86
2022/05/11 03:41:23;;;;;;;9.32;4.70;;;;;;;;;;5119888;27;20033;-86
2022/05/11 03:44:10;;;;;;;8.65;4.07;;;;;;;;;;5119815;27;20042;-86
2022/05/11 03:46:57;;;;;;;9.55;4.50;;;;;;;;;;5119804;27;20038;-86
2022/05/11 03:49:41;;;;;;;13.38;4.80;;;;;;;;;;5119305;27;20548;-86
2022/05/11 03:52:27;;;;;;;10.85;4.75;;;;;;;;;;5119585;27;20398;-85
2022/05/11 03:55:12;;;;;;;9.30;4.78;;;;;;;;;;5119767;27;20046;-85
2022/05/11 03:57:57;;;;;;;8.82;4.28;;;;;;;;;;5119752;27;20038;-86
2022/05/11 04:00:41;;;;;;;9.13;5.13;;;13.40;99.90;;;;;;5119171;27;20526;-86
2022/05/11 04:03:26;;;;;;;8.52;4.40;;;;;;;;;;5135062;27;20061;-86
2022/05/11 04:06:11;;;;;;;9.45;4.28;;;;;;;;;;5119396;27;20509;-85
2022/05/11 04:08:56;;;;;;;8.98;4.32;;;;;;;;;;5134485;27;20112;-85
2022/05/11 04:11:41;;;;;;;9.85;3.95;;;;;;;;;;5118766;27;20038;-85
2022/05/11 04:14:25;;;;;;;8.95;4.30;;;;;;;;;;5119174;27;20077;-86
2022/05/11 04:17:10;;;;;;;9.00;4.03;;;;;;;;;;5104837;27;20054;-86
2022/05/11 04:19:55;;;;;;;8.15;4.70;;;13.50;99.90;;;;;;5118672;27;20130;-86
2022/05/11 04:22:40;;;;;;;6.50;3.65;;;;;;;;;;5118765;27;20042;-86
2022/05/11 04:25:24;;;;;;;11.73;4.03;;;;;;;;;;5119066;27;20053;-86
2022/05/11 04:28:13;;;;;;;10.38;4.68;;;13.50;99.90;;;;;;5118218;27;20042;-86
2022/05/11 04:31:07;;;;;;;12.13;4.65;;;13.50;99.90;;;;;;5118473;27;20368;-86
2022/05/11 04:33:54;;;;;;;9.10;4.53;;;;;;;;;;5118376;27;20042;-86
2022/05/11 04:36:39;;;;;;;8.63;4.00;;;;;;;;;;5118362;27;20035;-86
2022/05/11 04:39:24;;;;;;;8.93;4.57;;;;;;;;;;5118950;27;20038;-86
2022/05/11 04:42:10;;;;;;;16.02;4.57;;;13.60;99.90;;;;;;5118646;27;20099;-86
2022/05/11 04:45:02;;;;;;;9.93;4.85;;;;;;;;;;5118355;27;20053;-86
2022/05/11 04:50:41;;;;;;;9.18;4.25;;;;;;;;;;5912176;22;20065;-86
2022/05/11 04:53:26;;;;;;;9.60;4.15;;;;;;;;;;5012397;28;20492;-82
2022/05/11 04:56:11;;;;;;;9.65;4.35;;;;;;;;;;5012236;28;20044;-82
2022/05/11 04:58:57;;;;;;;10.27;4.22;;;13.70;99.90;;;;;;5012324;28;20397;-83
2022/05/11 05:01:42;;;;;;;9.88;4.38;;;13.60;99.90;;;;;;5013346;28;20095;-84
2022/05/11 05:04:30;;;;;;;12.23;4.78;;;13.80;99.90;;;;;;5013428;28;20041;-83
2022/05/11 05:07:15;;;;;;;11.10;4.35;;;13.70;99.90;;;;;;4998439;28;20448;-83
2022/05/11 05:10:07;;;;;;;11.25;4.50;;;13.60;99.90;;;;;;5012023;28;20096;-83
2022/05/11 05:12:51;;;;;;;12.00;4.80;;;13.90;99.90;;;;;;4998183;28;20053;-83
2022/05/11 05:15:42;;;;;;;12.50;4.28;;;13.90;99.90;;;;;;5013394;28;20548;-83
2022/05/11 05:18:28;;;;;;;10.82;4.43;;;13.90;99.90;;;;;;5013386;28;20068;-83
2022/05/11 05:21:12;;;;;;;14.43;4.97;;;13.80;99.90;;;;;;5011911;28;20045;-83
2022/05/11 05:23:57;;;;;;;10.13;4.15;;;14.00;99.90;;;;;;5012922;28;20036;-83
2022/05/11 05:26:42;;;;;;;9.88;4.25;;;13.90;99.90;;;;;;5013231;28;20049;-83
2022/05/11 05:32:40;;;;;;;10.70;4.40;;;14.00;99.90;;;;;;5012347;28;20045;-82
2022/05/11 05:35:25;;;;;;;8.95;4.57;;;;;;;;;;5013078;28;20260;-83
2022/05/11 05:38:10;;;;;;;12.20;4.72;;;;;;;;;;5012755;28;20089;-83
2022/05/11 05:40:55;;;;;;;8.77;4.38;;;;;;;;;;5016807;28;20056;-85
2022/05/11 05:43:39;;;;;;;8.98;3.88;;;14.20;99.90;;;;;;5017051;28;20044;-83
2022/05/11 05:46:24;;;;;;;12.98;5.50;;;;;;;;;;5002300;28;20061;-82
2022/05/11 05:49:09;;;;;;;9.98;4.30;;;14.20;99.90;;;;;;5015703;28;20041;-83
2022/05/11 05:51:54;;;;;;;9.27;4.63;;;;;;;;;;5017139;28;20064;-83
2022/05/11 05:54:38;;;;;;;8.23;4.50;;;14.00;99.90;;;;;;5015822;28;20060;-83
2022/05/11 05:57:22;;;;;;;11.77;4.97;;;14.40;99.90;;;;;;5015877;28;20041;-82
2022/05/11 06:00:07;;;;;;;10.57;5.07;;;14.50;99.90;;;;;;5016415;28;20065;-83
2022/05/11 06:02:53;;;;;;;7.10;4.00;;;14.40;99.90;;;;;;5016625;28;20052;-83
2022/05/11 06:05:37;;;;;;;9.60;4.57;;;14.70;99.90;;;;;;5001757;28;20057;-83
2022/05/11 06:08:23;;;;;;;11.65;5.00;;;14.80;99.90;;;;;;5015236;28;20080;-83
2022/05/11 06:11:08;;;;;;;12.40;4.70;;;14.70;99.90;;;;;;5016152;28;20485;-83
2022/05/11 06:13:52;;;;;;;9.40;4.65;;;14.60;99.90;;;;;;5016463;28;20049;-83
2022/05/11 06:16:37;;;;;;;10.98;4.95;;;15.50;99.90;;;;;;5001607;28;20076;-83
2022/05/11 06:19:22;;;;;;;10.30;4.65;;;;;;;;;;5016036;28;20044;-83
2022/05/11 06:22:06;;;;;;;9.32;4.88;;;14.80;99.90;;;;;;5016089;28;20493;-83
2022/05/11 06:24:50;;;;;;;11.75;4.90;;;14.80;99.90;;;;;;5016275;28;20493;-82
2022/05/11 06:27:34;;;;;;;13.43;5.05;;;;;;;;;;5016247;28;20056;-83
2022/05/11 06:30:19;;;;;;;10.93;5.38;;;;;;;;;;5014928;28;20095;-83
2022/05/11 06:33:03;;;;;;;12.43;5.38;;;15.00;99.90;;;;;;5014839;28;20045;-84
2022/05/11 06:35:48;;;;;;;13.02;5.95;;;;;;;;;;5016082;28;20049;-83
2022/05/11 06:38:34;;;;;;;14.20;5.40;;;15.10;99.90;;;;;;5016066;28;20037;-83
2022/05/11 06:41:23;;;;;;;17.27;5.25;;;15.10;99.90;;;;;;5015673;28;20037;-82
2022/05/11 06:44:08;;;;;;;14.85;5.40;;;15.20;99.90;;;;;;5015866;28;20041;-83
2022/05/11 06:46:55;;;;;;;14.48;5.70;;;15.40;99.90;;;;;;5014902;28;20041;-83
2022/05/11 06:49:39;;;;;;;12.68;5.25;;;15.50;99.90;;;;;;5014901;28;20040;-83
2022/05/11 06:52:23;;;;;;;10.52;5.10;;;;;;;;;;5015144;28;20500;-83
2022/05/11 07:01:14;;;;;;;16.73;5.97;;;;;;;;;;5015407;28;20040;-83
2022/05/11 07:03:58;;;;;;;14.85;5.43;;;15.60;99.90;;;;;;5014849;28;20117;-83
2022/05/11 07:06:42;;;;;;;14.98;5.85;;;15.40;99.90;;;;;;5000729;28;20040;-83
2022/05/11 07:09:31;;;;;;;12.25;5.40;;;15.60;99.90;;;;;;5014241;28;20504;-83
2022/05/11 07:12:18;;;;;;;14.95;5.25;;;16.10;99.90;;;;;;5015363;28;20417;-83
2022/05/11 07:15:05;;;;;;;22.33;5.07;;;15.30;99.90;;;;;;5015441;28;20505;-83
2022/05/11 07:17:55;;;;;;;10.80;4.78;;;15.80;99.90;;;;;;5015469;28;20083;-83
2022/05/11 07:20:40;;;;;;;14.25;5.05;;;15.80;99.90;;;;;;5015624;28;20512;-83
2022/05/11 07:23:25;;;;;;;12.18;4.35;;;15.80;99.90;;;;;;5013962;28;20080;-83
2022/05/11 07:26:10;;;;;;;16.60;4.45;;;16.00;99.90;;;;;;5013942;28;20048;-85
2022/05/11 07:28:54;;;;;;;9.43;4.00;;;16.30;99.90;;;;;;5000442;28;20044;-85
2022/05/11 07:31:38;;;;;;;10.70;4.63;;;16.00;99.90;;;;;;5000309;28;20543;-85
2022/05/11 07:34:23;;;;;;;14.15;4.60;;;;;;;;;;5014827;28;20044;-84
2022/05/11 07:37:07;;;;;;;12.00;4.15;;;;;;;;;;5014013;28;20172;-84
2022/05/11 07:39:52;;;;;;;9.25;4.10;;;;;;;;;;5014738;28;20124;-84
2022/05/11 07:42:36;;;;;;;12.90;4.25;;;16.00;99.90;;;;;;5013545;28;20080;-85
2022/05/11 07:45:23;;;;;;;12.68;4.05;;;;;;;;;;4999837;28;20084;-85
2022/05/11 07:48:07;;;;;;;11.68;3.67;;;;;;;;;;5014754;28;20488;-85
2022/05/11 07:50:52;;;;;;;12.52;4.35;;;;;;;;;;5014638;28;20068;-84
2022/05/11 07:53:37;;;;;;;10.75;3.42;;;16.60;99.90;;;;;;5014007;28;20092;-84
2022/05/11 08:02:30;;;;;;;13.77;4.00;;;16.50;99.90;;;;;;5001192;28;20049;-83
2022/05/11 08:05:16;;;;;;;11.25;3.58;;;16.50;99.90;;;;;;5014377;28;20168;-84
2022/05/11 08:08:05;;;;;;;14.88;3.28;;;16.70;99.90;;;;;;5014383;28;20096;-84
2022/05/11 08:10:50;;;;;;;13.13;3.60;;;;;;;;;;5014440;28;20048;-83
2022/05/11 08:13:34;;;;;;;10.98;3.67;;;17.30;99.90;;;;;;5013025;28;20401;-83
2022/05/11 08:16:19;;;;;;;11.65;2.88;;;16.80;99.90;;;;;;5013974;28;20114;-85
2022/05/11 08:19:04;;;;;;;13.45;3.70;;;17.10;99.90;;;;;;4999347;28;20129;-84
2022/05/11 08:21:49;;;;;;;16.40;3.60;;;17.20;99.90;;;;;;4999371;28;20045;-84
2022/05/11 08:24:34;;;;;;;11.70;3.20;;;;;;;;;;5013797;28;20061;-84
2022/05/11 08:27:21;;;;;;;12.95;3.03;;;17.50;99.90;;;;;;5012710;28;20063;-85
2022/05/11 08:33:23;;;;;;;9.55;2.70;;;18.20;99.90;;;;;;5013972;28;20101;-84
2022/05/11 08:36:14;;;;;;;26.52;4.15;;;18.30;99.90;;;;;;4999116;28;20044;-83
2022/05/11 08:39:01;;;;;;;11.05;3.03;;;18.50;99.90;;;;;;5013913;28;20064;-83
2022/05/11 08:41:51;;;;;;;15.63;2.53;;;18.30;99.90;;;;;;5013907;28;20063;-83
2022/05/11 08:44:50;;;;;;;11.10;2.70;;;18.20;99.90;;;;;;5013486;28;20520;-83
2022/05/11 08:47:48;;;;;;;11.00;2.92;;;18.20;99.90;;;;;;5013025;28;20401;-86
2022/05/11 08:50:34;;;;;;;13.23;2.70;;;;;;;;;;5013035;28;20040;-86
2022/05/11 08:53:41;;;;;;;10.07;2.88;;;18.10;99.90;;;;;;5012812;28;20104;-87
2022/05/11 08:56:44;;;;;;;12.13;2.67;;;18.10;99.90;;;;;;5013254;28;20091;-88
2022/05/11 08:59:31;;;;;;;7.35;2.17;;;18.20;99.90;;;;;;5013349;28;20037;-87
2022/05/11 09:02:19;;;;;;;11.60;2.30;;;18.40;99.90;;;;;;4998594;28;20042;-87
2022/05/11 09:05:05;;;;;;;15.65;3.90;;;;;;;;;;5012650;28;20080;-85
2022/05/11 09:08:01;;;;;;;77.38;7.88;;;18.50;99.90;;;;;;4998662;28;20124;-87
2022/05/11 09:10:46;;;;;;;9.63;2.45;;;;;;;;;;5013116;28;20044;-87
2022/05/11 09:13:32;;;;;;;12.27;2.45;;;;;;;;;;5011574;28;20053;-87
2022/05/11 09:16:19;;;;;;;11.10;2.38;;;;;;;;;;5013388;28;20087;-86
2022/05/11 09:19:14;;;;;;;14.18;2.53;;;;;;;;;;5012297;28;20121;-87
2022/05/11 09:22:16;;;;;;;12.15;3.00;;;18.70;99.90;;;;;;5012368;28;20453;-87
2022/05/11 09:25:05;;;;;;;19.27;2.75;;;;;;;;;;4998673;28;20446;-88
2022/05/11 09:27:49;;;;;;;9.63;2.85;;;;;;;;;;5011852;28;20148;-87
2022/05/11 09:30:34;;;;;;;13.00;2.60;;;;;;;;;;5011798;28;20037;-87
2022/05/11 09:33:24;;;;;;;11.32;2.40;;;19.20;99.90;;;;;;5012054;28;20053;-86
2022/05/11 09:36:14;;;;;;;9.82;2.53;;;;;;;;;;4998166;28;20040;-87
2022/05/11 09:39:13;;;;;;;8.02;2.05;;;18.80;99.90;;;;;;5012101;28;20122;-86
2022/05/11 09:42:13;;;;;;;12.38;2.80;;;;;;;;;;4998068;28;20041;-87
2022/05/11 09:44:57;;;;;;;8.82;3.17;;;;;;;;;;5011953;28;20033;-87
2022/05/11 09:48:02;;;;;;;11.82;2.78;;;;;;;;;;5012611;28;20456;-86
2022/05/11 09:50:48;;;;;;;13.20;3.10;;;;;;;;;;5011329;28;20065;-87
2022/05/11 09:53:36;;;;;;;15.80;3.30;;;18.40;99.90;;;;;;5011551;28;20085;-86
2022/05/11 09:56:23;;;;;;;13.82;2.75;;;;;;;;;;4998957;28;20041;-85
2022/05/11 09:59:25;;;;;;;17.55;3.60;;;18.50;99.90;;;;;;5012167;28;20037;-86
2022/05/11 10:02:34;;;;;;;12.85;3.05;;;18.60;99.90;;;;;;5011779;28;20076;-87
2022/05/11 10:05:27;;;;;;;8.07;2.58;;;19.30;99.90;;;;;;4998108;28;20121;-87
2022/05/11 10:08:31;;;;;;;10.23;3.40;;;19.70;99.90;;;;;;5011823;28;20044;-86
2022/05/11 10:11:41;;;;;;;9.50;3.47;;;20.10;99.90;;;;;;4997887;28;20084;-87
2022/05/11 10:23:47;;;;;;;6.25;2.10;;;;;;;;;;5012322;28;20052;-87
2022/05/11 10:26:37;;;;;;;12.63;2.50;;;;;;;;;;5013538;28;20084;-88
2022/05/11 10:29:37;;;;;;;13.23;2.25;;;;;;;;;;5015305;28;20156;-86
2022/05/11 10:32:22;;;;;;;9.27;2.40;;;;;;;;;;5015253;28;20040;-87
2022/05/11 10:35:13;;;;;;;10.30;2.42;;;;;;;;;;5015154;28;20048;-87
2022/05/11 10:37:58;;;;;;;7.13;2.15;;;;;;;;;;5014844;28;20036;-87
2022/05/11 10:41:01;;;;;;;6.40;1.83;;;;;;;;;;5014844;28;20045;-87
2022/05/11 10:43:52;;;;;;;;;;;20.70;94.50;;;;;;5015071;28;20089;-88
2022/05/11 10:46:41;;;;;;;10.40;2.05;;;;;;;;;;5000870;28;19959;-86
2022/05/11 10:49:42;;;;;;;12.55;2.60;;;;;;;;;;5015956;28;20056;-88
2022/05/11 10:52:40;;;;;;;6.57;2.08;;;;;;;;;;5014559;28;20108;-86
2022/05/11 10:55:28;;;;;;;10.13;2.60;;;;;;;;;;5014864;28;20069;-86
2022/05/11 10:58:29;;;;;;;10.13;1.98;;;;;;;;;;5014921;28;20037;-87
2022/05/11 11:01:15;;;;;;;11.15;1.88;;;;;;;;;;5014730;28;20531;-86
2022/05/11 11:04:24;;;;;;;11.85;2.75;;;21.00;90.70;;;;;;5015365;28;20041;-86
2022/05/11 11:07:22;;;;;;;9.55;1.73;;;;;;;;;;5014596;28;20055;-87
2022/05/11 11:10:22;;;;;;;10.88;2.33;;;;;;;;;;5014709;28;20037;-87
2022/05/11 11:13:40;;;;;;;;;;;;;;;;;;;;;
2022/05/11 11:16:30;;;;;;;9.95;1.88;;;;;;;;;;5015532;28;20045;-86
2022/05/11 11:19:15;;;;;;;67.90;6.75;;;;;;;;;;5014302;28;20112;-85
2022/05/11 11:22:06;;;;;;;12.02;1.75;;;;;;;;;;5013965;28;20037;-87
2022/05/11 11:25:20;;;;;;;7.70;1.75;;;;;;;;;;5013813;28;20084;-87
2022/05/11 11:28:08;;;;;;;36.83;4.67;;;;;;;;;;5013901;28;20112;-88
2022/05/11 11:31:05;;;;;;;6.40;1.70;;;;;;;;;;5014007;28;20708;-87
2022/05/11 11:34:05;;;;;;;9.15;2.65;;;;;;;;;;5013696;28;20040;-87
2022/05/11 11:36:50;;;;;;;6.07;1.40;;;;;;;;;;5013572;28;20037;-87
2022/05/11 11:39:52;;;;;;;7.43;1.65;;;;;;;;;;5014072;28;20052;-86
2022/05/11 11:42:38;;;;;;;10.73;2.15;;;;;;;;;;5014819;28;20041;-87
2022/05/11 11:45:29;;;;;;;8.35;1.50;;;;;;;;;;5013959;28;20037;-86
2022/05/11 11:48:20;;;;;;;7.43;1.73;;;;;;;;;;5013799;28;20045;-86
2022/05/11 11:51:10;;;;;;;10.40;2.72;;;20.70;87.00;;;;;;5013168;28;20396;-86
2022/05/11 11:53:56;;;;;;;11.73;1.60;;;;;;;;;;4999422;28;20065;-87
2022/05/11 11:56:46;;;;;;;4.82;1.35;;;;;;;;;;5013604;28;20040;-86
2022/05/11 11:59:30;;;;;;;7.05;1.50;;;;;;;;;;5013509;28;20040;-87
2022/05/11 12:02:24;;;;;;;4.15;1.45;;;;;;;;;;5013598;28;20397;-86
2022/05/11 12:05:13;;;;;;;11.80;1.75;;;;;;;;;;5013239;28;20463;-86
2022/05/11 12:17:37;;;;;;;10.73;2.05;;;;;;;;;;5014258;28;20112;-87
2022/05/11 12:20:22;;;;;;;8.75;2.10;;;;;;;;;;5013191;28;20044;-87
2022/05/11 12:23:19;;;;;;;7.45;1.60;;;;;;;;;;5012897;28;20076;-87
2022/05/11 12:26:08;;;;;;;8.93;1.95;;;;;;;;;;5012811;28;20041;-86
2022/05/11 12:29:54;;;;;;;11.50;2.08;;;;;;;;;;5012691;28;20552;-86
2022/05/11 12:32:10;;;;;;;9.35;1.73;;;;;;;;;;5013541;28;20084;-86
2022/05/11 12:34:56;;;;;;;7.70;1.83;;;;;;;;;;5012612;28;20041;-88
2022/05/11 12:37:40;;;;;;;12.35;2.08;;;;;;;;;;5012932;28;20037;-86
2022/05/11 12:40:26;;;;;;;10.98;2.70;;;;;;;;;;5012947;28;20075;-87
2022/05/11 12:43:30;;;;;;;6.35;1.75;;;21.40;81.00;;;;;;5012471;28;20037;-86
2022/05/11 12:46:15;;;;;;;8.13;2.13;;;;;;;;;;4998533;28;20088;-86
2022/05/11 12:49:01;;;;;;;10.60;2.15;;;;;;;;;;5011915;28;20429;-87
2022/05/11 12:51:54;;;;;;;9.88;2.00;;;;;;;;;;5013355;28;20100;-86
2022/05/11 12:54:41;;;;;;;8.90;1.83;;;;;;;;;;5013596;28;20402;-87
2022/05/11 12:57:34;;;;;;;9.15;1.90;;;;;;;;;;5012771;28;20497;-87
2022/05/11 13:00:22;;;;;;;12.93;2.08;;;;;;;;;;5012322;28;20065;-87
2022/05/11 13:03:42;;;;;;;10.98;2.33;;;;;;;;;;5012248;28;20091;-86
2022/05/11 13:06:31;;;;;;;12.10;2.30;;;;;;;;;;4934157;29;20518;-87
2022/05/11 13:09:23;;;;;;;39.40;5.25;;;;;;;;;;4998249;28;20134;-86
2022/05/11 13:12:16;;;;;;;13.10;2.70;;;;;;;;;;5012160;28;20041;-87
2022/05/11 13:15:09;;;;;;;9.40;2.72;;;;;;;;;;5012068;28;20091;-87
2022/05/11 13:17:54;;;;;;;10.75;2.38;;;;;;;;;;5012679;28;20045;-86
2022/05/11 13:20:41;;;;;;;14.10;2.15;;;;;;;;;;5012274;28;20068;-87
2022/05/11 13:23:33;;;;;;;12.02;2.60;;;;;;;;;;5012391;28;20128;-86
2022/05/11 13:26:32;;;;;;;11.68;2.28;;;;;;;;;;5013540;28;20037;-86
2022/05/11 13:29:24;;;;;;;12.93;2.50;;;;;;;;;;5012157;28;20145;-86
2022/05/11 13:32:11;;;;;;;10.60;1.80;;;21.00;80.30;;;;;;5012213;28;20040;-87
2022/05/11 13:35:14;;;;;;;9.80;2.13;;;;;;;;;;5012185;28;20092;-87
2022/05/11 13:38:11;;;;;;;13.07;2.17;;;;;;;;;;5012562;28;20076;-87
2022/05/11 13:40:55;;;;;;;11.57;2.38;;;;;;;;;;5012267;28;20168;-86
2022/05/11 13:43:53;;;;;;;11.48;2.17;;;;;;;;;;5012660;28;20045;-86
2022/05/11 13:49:49;;;;;;;8.30;1.80;;;;;;;;;;5013234;28;20056;-87
2022/05/11 13:52:38;;;;;;;8.65;2.05;;;;;;;;;;5013136;28;20076;-85
2022/05/11 13:55:42;;;;;;;10.20;2.00;;;;;;;;;;5011600;28;20115;-87
2022/05/11 13:58:34;;;;;;;10.32;2.10;;;;;;;;;;5012627;28;20032;-86
2022/05/11 14:01:25;;;;;;;8.20;2.50;;;;;;;;;;5015217;28;20061;-86
2022/05/11 14:04:10;;;;;;;10.55;2.00;;;;;;;;;;5015898;28;20064;-86
2022/05/11 14:07:24;;;;;;;9.25;2.25;;;;;;;;;;5016154;28;20053;-87
2022/05/11 14:10:09;;;;;;;10.63;2.47;;;;;;;;;;5015602;28;20175;-85
2022/05/11 14:12:56;;;;;;;9.82;2.00;;;;;;;;;;5015829;28;20128;-86
2022/05/11 14:15:40;;;;;;;7.25;1.92;;;;;;;;;;5016059;28;20087;-86
2022/05/11 14:18:27;;;;;;;7.35;2.10;;;;;;;;;;5016992;28;20068;-85
2022/05/11 14:21:11;;;;;;;9.40;2.13;;;;;;;;;;5015965;28;20084;-86
2022/05/11 14:23:56;;;;;;;7.70;1.70;;;;;;;;;;5015838;28;20037;-85
2022/05/11 14:26:42;;;;;;;11.13;2.00;;;;;;;;;;5015784;28;20088;-87
2022/05/11 14:29:26;;;;;;;11.10;2.25;;;;;;;;;;5015271;28;20076;-86
2022/05/11 14:32:42;;;;;;;11.77;2.40;;;20.90;81.70;;;;;;5015335;28;20119;-87
2022/05/11 14:35:29;;;;;;;9.90;2.83;;;;;;;;;;4995941;28;20061;-87
2022/05/11 14:38:16;;;;;;;7.15;2.10;;;;;;;;;;5015143;28;20418;-86
2022/05/11 14:41:01;;;;;;;8.75;2.47;;;;;;;;;;5015521;28;20037;-86
2022/05/11 14:43:46;;;;;;;11.88;2.20;;;;;;;;;;5015460;28;20508;-86
2022/05/11 14:46:30;;;;;;;9.45;2.05;;;;;;;;;;5015943;28;20073;-86
2022/05/11 14:49:15;;;;;;;20.42;2.80;;;;;;;;;;5001748;28;20053;-86
2022/05/11 14:52:00;;;;;;;7.93;2.05;;;;;;;;;;5015077;28;20061;-86
2022/05/11 14:54:45;;;;;;;13.45;2.53;;;;;;;;;;5014783;28;20045;-86
2022/05/11 15:03:39;;;;;;;10.00;2.08;;;;;;;;;;5015333;28;20157;-86
2022/05/11 15:06:24;;;;;;;8.13;2.30;;;;;;;;;;5000515;28;20073;-86
2022/05/11 15:09:09;;;;;;;7.20;2.10;;;;;;;;;;5000922;28;20509;-87
2022/05/11 15:14:58;;;;;;;8.30;1.88;;;;;;;;;;5015560;28;20592;-86
2022/05/11 15:17:43;;;;;;;10.82;1.60;;;;;;;;;;5014526;28;20076;-86
2022/05/11 15:20:30;;;;;;;9.60;2.17;;;;;;;;;;5015103;28;20084;-86
2022/05/11 15:23:16;;;;;;;8.88;2.40;;;;;;;;;;5014133;28;20492;-87
2022/05/11 15:26:00;;;;;;;13.98;2.10;;;;;;;;;;5014405;28;20504;-86
2022/05/11 15:28:55;;;;;;;;;;;;;;;;;;;;;
2022/05/11 15:31:43;;;;;;;11.52;2.15;;;;;;;;;;5014950;28;20036;-86
2022/05/11 15:34:29;;;;;;;10.13;2.20;;;;;;;;;;5014806;28;20481;-86
2022/05/11 15:37:14;;;;;;;6.32;2.05;;;;;;;;;;5014311;28;20041;-87
2022/05/11 15:39:58;;;;;;;9.00;2.10;;;;;;;;;;5014251;28;20065;-86
2022/05/11 15:42:45;;;;;;;10.57;2.00;;;;;;;;;;5014114;28;20061;-86
2022/05/11 15:45:30;;;;;;;7.28;1.73;;;;;;;;;;5013757;28;20508;-86
2022/05/11 15:48:15;;;;;;;9.68;2.13;;;;;;;;;;5013887;28;20037;-86
2022/05/11 15:51:09;;;;;;;8.18;1.48;;;;;;;;;;5013908;28;20032;-87
2022/05/11 15:53:56;;;;;;;8.10;1.70;;;;;;;;;;5013478;28;20061;-87
2022/05/11 15:56:41;;;;;;;9.07;1.70;;;;;;;;;;5013315;28;20137;-86
2022/05/11 15:59:26;;;;;;;5.93;1.48;;;;;;;;;;5013284;28;20173;-86
2022/05/11 16:02:12;;;;;;;8.52;2.33;;;;;;;;;;5014626;28;20084;-87
2022/05/11 16:04:57;;;;;;;6.45;1.77;;;;;;;;;;5013461;28;20080;-86
2022/05/11 16:07:41;;;;;;;7.88;1.73;;;;;;;;;;4999200;28;20100;-85
2022/05/11 16:10:28;;;;;;;9.32;1.58;;;;;;;;;;5013090;28;20042;-86
2022/05/11 16:13:13;;;;;;;10.35;1.77;;;;;;;;;;5013402;28;20100;-86
2022/05/11 16:15:58;;;;;;;8.95;1.77;;;;;;;;;;5014251;28;20040;-86
2022/05/11 16:21:54;;;;;;;8.98;1.83;;;;;;;;;;5014492;28;20075;-87
2022/05/11 16:24:39;;;;;;;5.03;1.58;;;;;;;;;;5012017;28;20076;-87
2022/05/11 16:27:24;;;;;;;11.48;1.95;;;;;;;;;;5012755;28;20408;-88
2022/05/11 16:30:09;;;;;;;7.25;1.98;;;;;;;;;;5013153;28;20060;-86
2022/05/11 16:32:56;;;;;;;10.73;2.13;;;;;;;;;;5012935;28;20176;-86
2022/05/11 16:35:41;;;;;;;12.02;2.00;;;;;;;;;;5013658;28;20422;-86
2022/05/11 16:38:28;;;;;;;8.70;2.00;;;;;;;;;;5012549;28;20045;-86
2022/05/11 16:41:14;;;;;;;11.50;2.72;;;;;;;;;;5012845;28;20040;-86
2022/05/11 16:43:59;;;;;;;7.07;2.00;;;;;;;;;;5012858;28;20045;-85
2022/05/11 16:46:47;;;;;;;9.43;2.40;;;;;;;;;;5012447;28;20496;-87
2022/05/11 16:49:36;;;;;;;11.93;2.42;;;;;;;;;;5012356;28;20571;-86
2022/05/11 16:52:25;;;;;;;10.88;3.13;;;16.90;91.90;;;;;;4998928;28;20171;-86
2022/05/11 16:55:13;;;;;;;10.63;2.88;;;;;;;;;;4999019;28;20489;-87
2022/05/11 16:57:58;;;;;;;10.98;2.65;;;;;;;;;;5012728;28;20072;-87
2022/05/11 17:00:42;;;;;;;11.43;2.40;;;;;;;;;;5012603;28;20137;-87
2022/05/11 17:03:28;;;;;;;10.05;2.67;;;;;;;;;;4998433;28;20048;-93